createdAt,value
2018-03-01T00:00:26.235Z,1009.67
2018-03-01T00:01:26.217Z,1009.65
2018-03-01T00:02:26.201Z,1009.60
2018-03-01T00:03:26.185Z,1009.62
2018-03-01T00:04:26.167Z,1009.65
2018-03-01T00:05:26.153Z,1009.64
2018-03-01T00:06:26.137Z,1009.83
2018-03-01T00:07:26.120Z,1009.64
2018-03-01T00:08:26.103Z,1009.70
2018-03-01T00:09:26.086Z,1009.71
2018-03-01T00:10:26.070Z,1009.71
2018-03-01T00:11:26.054Z,1009.76
2018-03-01T00:12:26.042Z,1009.81
2018-03-01T00:13:26.019Z,1009.72
2018-03-01T00:14:26.001Z,1009.79
2018-03-01T00:15:25.985Z,1009.75
2018-03-01T00:16:25.966Z,1009.71
2018-03-01T00:17:25.952Z,1009.75
2018-03-01T00:18:25.937Z,1009.75
2018-03-01T00:19:25.919Z,1009.83
2018-03-01T00:20:25.903Z,1009.76
2018-03-01T00:21:25.883Z,1009.71
2018-03-01T00:22:25.866Z,1009.80
2018-03-01T00:23:25.850Z,1009.69
2018-03-01T00:24:25.832Z,1009.69
2018-03-01T00:25:25.814Z,1009.71
2018-03-01T00:26:25.800Z,1009.66
2018-03-01T00:27:25.784Z,1009.67
2018-03-01T00:28:25.764Z,1009.64
2018-03-01T00:29:25.750Z,1009.60
2018-03-01T00:30:25.733Z,1009.63
2018-03-01T00:31:25.718Z,1009.69
2018-03-01T00:32:25.700Z,1009.67
2018-03-01T00:33:25.682Z,1009.53
2018-03-01T00:34:25.666Z,1009.58
2018-03-01T00:35:25.650Z,1009.49
2018-03-01T00:36:25.631Z,1009.46
2018-03-01T00:37:25.613Z,1009.48
2018-03-01T00:38:25.596Z,1009.56
2018-03-01T00:39:25.613Z,1009.43
2018-03-01T00:40:25.561Z,1009.44
2018-03-01T00:41:25.546Z,1009.39
2018-03-01T00:42:25.528Z,1009.45
2018-03-01T00:43:25.515Z,1009.32
2018-03-01T00:44:25.522Z,1009.34
2018-03-01T00:45:25.481Z,1009.28
2018-03-01T00:46:25.463Z,1009.31
2018-03-01T00:47:25.446Z,1009.30
2018-03-01T00:48:25.429Z,1009.31
2018-03-01T00:49:25.414Z,1009.22
2018-03-01T00:50:25.397Z,1009.22
2018-03-01T00:51:25.381Z,1009.19
2018-03-01T00:52:25.362Z,1009.18
2018-03-01T00:53:25.343Z,1009.21
2018-03-01T00:54:25.326Z,1009.22
2018-03-01T00:55:25.309Z,1009.19
2018-03-01T00:56:25.293Z,1009.14
2018-03-01T00:57:25.275Z,1009.16
2018-03-01T00:58:25.258Z,1009.17
2018-03-01T00:59:25.242Z,1009.17
2018-03-01T01:00:25.225Z,1009.09
2018-03-01T01:01:25.211Z,1009.13
2018-03-01T01:02:25.200Z,1009.17
2018-03-01T01:03:25.177Z,1009.17
2018-03-01T01:04:25.162Z,1009.15
2018-03-01T01:05:25.144Z,1009.19
2018-03-01T01:06:25.137Z,1009.18
2018-03-01T01:07:25.110Z,1009.18
2018-03-01T01:08:25.093Z,1009.10
2018-03-01T01:09:25.074Z,1009.11
2018-03-01T01:10:25.058Z,1009.17
2018-03-01T01:11:25.042Z,1009.13
2018-03-01T01:12:25.028Z,1009.19
2018-03-01T01:13:25.007Z,1009.19
2018-03-01T01:14:24.999Z,1009.18
2018-03-01T01:15:24.978Z,1009.19
2018-03-01T01:16:24.956Z,1009.17
2018-03-01T01:17:24.942Z,1009.17
2018-03-01T01:18:24.927Z,1009.20
2018-03-01T01:19:24.909Z,1009.18
2018-03-01T01:20:24.893Z,1009.20
2018-03-01T01:21:24.873Z,1009.19
2018-03-01T01:22:24.856Z,1009.21
2018-03-01T01:23:24.840Z,1009.17
2018-03-01T01:24:24.822Z,1009.22
2018-03-01T01:25:24.809Z,1009.15
2018-03-01T01:26:24.792Z,1009.25
2018-03-01T01:27:24.775Z,1009.21
2018-03-01T01:28:24.758Z,1009.19
2018-03-01T01:29:24.742Z,1009.20
2018-03-01T01:30:24.728Z,1009.18
2018-03-01T01:31:24.709Z,1009.14
2018-03-01T01:32:25.241Z,1009.15
2018-03-01T01:33:24.673Z,1009.16
2018-03-01T01:34:24.655Z,1009.11
2018-03-01T01:35:24.639Z,1009.08
2018-03-01T01:36:24.625Z,1009.09
2018-03-01T01:37:24.606Z,1009.05
2018-03-01T01:38:24.588Z,1009.00
2018-03-01T01:39:24.618Z,1009.00
2018-03-01T01:40:24.555Z,1008.94
2018-03-01T01:41:24.541Z,1008.99
2018-03-01T01:42:24.528Z,1008.92
2018-03-01T01:43:24.508Z,1008.89
2018-03-01T01:44:24.490Z,1008.94
2018-03-01T01:45:24.475Z,1008.94
2018-03-01T01:46:24.458Z,1008.88
2018-03-01T01:47:24.442Z,1008.90
2018-03-01T01:48:24.452Z,1008.80
2018-03-01T01:49:24.404Z,1008.77
2018-03-01T01:50:24.390Z,1008.73
2018-03-01T01:51:24.372Z,1008.73
2018-03-01T01:52:24.355Z,1008.67
2018-03-01T01:53:24.337Z,1008.65
2018-03-01T01:54:24.321Z,1008.65
2018-03-01T01:55:24.304Z,1008.62
2018-03-01T01:56:24.286Z,1008.69
2018-03-01T01:57:24.274Z,1008.52
2018-03-01T01:58:24.258Z,1008.51
2018-03-01T01:59:24.241Z,1008.54
2018-03-01T02:00:24.226Z,1008.51
2018-03-01T02:01:24.206Z,1008.50
2018-03-01T02:02:24.190Z,1008.40
2018-03-01T02:03:24.174Z,1008.47
2018-03-01T02:04:24.159Z,1008.42
2018-03-01T02:05:24.138Z,1008.41
2018-03-01T02:06:24.120Z,1008.43
2018-03-01T02:07:24.104Z,1008.42
2018-03-01T02:08:24.086Z,1008.39
2018-03-01T02:09:24.073Z,1008.39
2018-03-01T02:10:24.054Z,1008.30
2018-03-01T02:11:24.037Z,1008.33
2018-03-01T02:12:24.019Z,1008.31
2018-03-01T02:13:24.006Z,1008.30
2018-03-01T02:14:23.990Z,1008.26
2018-03-01T02:15:23.973Z,1008.23
2018-03-01T02:16:23.954Z,1008.19
2018-03-01T02:17:23.938Z,1008.19
2018-03-01T02:18:23.922Z,1008.21
2018-03-01T02:19:23.905Z,1008.19
2018-03-01T02:20:23.888Z,1008.22
2018-03-01T02:21:23.868Z,1008.25
2018-03-01T02:22:23.851Z,1008.19
2018-03-01T02:23:23.834Z,1008.18
2018-03-01T02:24:23.816Z,1008.13
2018-03-01T02:25:23.800Z,1008.05
2018-03-01T02:26:23.783Z,1008.08
2018-03-01T02:27:23.766Z,1008.08
2018-03-01T02:28:23.749Z,1008.00
2018-03-01T02:29:23.734Z,1008.03
2018-03-01T02:30:23.719Z,1008.00
2018-03-01T02:31:23.702Z,1007.94
2018-03-01T02:32:23.695Z,1007.99
2018-03-01T02:33:23.669Z,1007.91
2018-03-01T02:34:23.650Z,1007.95
2018-03-01T02:35:23.633Z,1007.93
2018-03-01T02:36:23.615Z,1008.00
2018-03-01T02:37:23.597Z,1007.98
2018-03-01T02:38:23.580Z,1007.96
2018-03-01T02:39:23.562Z,1007.92
2018-03-01T02:40:23.545Z,1007.86
2018-03-01T02:41:23.527Z,1007.85
2018-03-01T02:42:23.513Z,1007.84
2018-03-01T02:43:23.498Z,1007.71
2018-03-01T02:44:23.479Z,1007.60
2018-03-01T02:45:23.462Z,1007.56
2018-03-01T02:46:23.445Z,1007.52
2018-03-01T02:47:23.428Z,1007.47
2018-03-01T02:48:23.411Z,1007.48
2018-03-01T02:49:23.399Z,1007.41
2018-03-01T02:50:23.378Z,1007.41
2018-03-01T02:51:23.362Z,1007.38
2018-03-01T02:52:23.343Z,1007.35
2018-03-01T02:53:23.323Z,1007.39
2018-03-01T02:54:23.306Z,1007.31
2018-03-01T02:55:23.289Z,1007.31
2018-03-01T02:56:23.271Z,1007.30
2018-03-01T02:57:23.253Z,1007.35
2018-03-01T02:58:23.237Z,1007.28
2018-03-01T02:59:23.220Z,1007.29
2018-03-01T03:00:23.205Z,1007.22
2018-03-01T03:01:23.189Z,1007.23
2018-03-01T03:02:23.171Z,1007.29
2018-03-01T03:03:23.155Z,1007.25
2018-03-01T03:04:23.137Z,1007.22
2018-03-01T03:05:23.120Z,1007.25
2018-03-01T03:06:23.103Z,1007.15
2018-03-01T03:07:23.087Z,1007.16
2018-03-01T03:08:23.068Z,1007.26
2018-03-01T03:09:23.048Z,1007.22
2018-03-01T03:10:23.031Z,1007.32
2018-03-01T03:11:23.015Z,1007.13
2018-03-01T03:12:22.996Z,1007.15
2018-03-01T03:13:22.979Z,1006.96
2018-03-01T03:14:22.962Z,1007.13
2018-03-01T03:15:22.944Z,1007.08
2018-03-01T03:16:22.927Z,1007.03
2018-03-01T03:17:22.914Z,1007.03
2018-03-01T03:18:22.898Z,1007.03
2018-03-01T03:19:22.880Z,1007.05
2018-03-01T03:20:22.861Z,1007.05
2018-03-01T03:21:22.852Z,1007.39
2018-03-01T03:22:22.827Z,1007.11
2018-03-01T03:23:22.811Z,1007.06
2018-03-01T03:24:22.793Z,1007.08
2018-03-01T03:25:22.775Z,1007.01
2018-03-01T03:26:22.756Z,1006.92
2018-03-01T03:27:22.738Z,1006.91
2018-03-01T03:28:22.721Z,1006.95
2018-03-01T03:29:22.711Z,1006.93
2018-03-01T03:30:22.696Z,1006.92
2018-03-01T03:31:22.673Z,1006.94
2018-03-01T03:32:22.655Z,1007.01
2018-03-01T03:33:22.636Z,1006.99
2018-03-01T03:34:22.617Z,1007.04
2018-03-01T03:35:22.603Z,1007.03
2018-03-01T03:36:22.584Z,1007.02
2018-03-01T03:37:22.565Z,1007.03
2018-03-01T03:38:22.549Z,1007.06
2018-03-01T03:39:22.532Z,1006.96
2018-03-01T03:40:22.515Z,1006.98
2018-03-01T03:41:22.499Z,1006.94
2018-03-01T03:42:22.484Z,1007.07
2018-03-01T03:43:22.467Z,1006.98
2018-03-01T03:44:22.449Z,1006.96
2018-03-01T03:45:22.432Z,1006.94
2018-03-01T03:46:22.414Z,1006.94
2018-03-01T03:47:22.397Z,1006.97
2018-03-01T03:48:22.380Z,1006.90
2018-03-01T03:49:22.361Z,1006.95
2018-03-01T03:50:22.345Z,1006.88
2018-03-01T03:51:22.325Z,1006.93
2018-03-01T03:52:22.308Z,1006.95
2018-03-01T03:53:22.291Z,1006.89
2018-03-01T03:54:22.282Z,1006.90
2018-03-01T03:55:22.258Z,1006.83
2018-03-01T03:56:22.240Z,1006.82
2018-03-01T03:57:22.227Z,1006.85
2018-03-01T03:58:22.210Z,1006.92
2018-03-01T03:59:22.192Z,1006.84
2018-03-01T04:00:22.175Z,1006.80
2018-03-01T04:01:22.159Z,1006.77
2018-03-01T04:02:22.141Z,1006.87
2018-03-01T04:03:22.124Z,1006.75
2018-03-01T04:04:22.106Z,1006.74
2018-03-01T04:05:22.086Z,1006.86
2018-03-01T04:06:22.069Z,1006.82
2018-03-01T04:07:22.053Z,1006.79
2018-03-01T04:08:22.034Z,1006.79
2018-03-01T04:09:22.018Z,1006.83
2018-03-01T04:10:22.001Z,1006.83
2018-03-01T04:11:21.986Z,1006.72
2018-03-01T04:12:21.967Z,1006.78
2018-03-01T04:13:21.953Z,1006.76
2018-03-01T04:14:21.937Z,1006.75
2018-03-01T04:15:21.918Z,1006.78
2018-03-01T04:16:21.901Z,1006.66
2018-03-01T04:17:21.885Z,1006.71
2018-03-01T04:18:21.867Z,1006.67
2018-03-01T04:19:21.851Z,1006.68
2018-03-01T04:20:21.833Z,1006.54
2018-03-01T04:21:21.814Z,1006.54
2018-03-01T04:22:21.796Z,1006.48
2018-03-01T04:23:21.779Z,1006.39
2018-03-01T04:24:21.762Z,1006.45
2018-03-01T04:25:21.745Z,1006.53
2018-03-01T04:26:21.728Z,1006.49
2018-03-01T04:27:21.712Z,1006.47
2018-03-01T04:28:21.694Z,1006.44
2018-03-01T04:29:21.679Z,1006.49
2018-03-01T04:30:21.662Z,1006.48
2018-03-01T04:31:21.646Z,1006.47
2018-03-01T04:32:21.632Z,1006.67
2018-03-01T04:33:21.609Z,1006.64
2018-03-01T04:34:21.592Z,1006.51
2018-03-01T04:35:21.575Z,1006.55
2018-03-01T04:36:21.558Z,1006.59
2018-03-01T04:37:21.542Z,1006.53
2018-03-01T04:38:21.527Z,1006.53
2018-03-01T04:39:21.510Z,1006.54
2018-03-01T04:40:21.492Z,1006.47
2018-03-01T04:41:21.475Z,1006.45
2018-03-01T04:42:21.458Z,1006.44
2018-03-01T04:43:21.441Z,1006.64
2018-03-01T04:44:21.431Z,1006.47
2018-03-01T04:45:21.404Z,1006.45
2018-03-01T04:46:21.387Z,1006.44
2018-03-01T04:47:21.370Z,1006.48
2018-03-01T04:48:21.352Z,1006.47
2018-03-01T04:49:21.340Z,1006.47
2018-03-01T04:50:21.318Z,1006.51
2018-03-01T04:51:21.303Z,1006.43
2018-03-01T04:52:21.284Z,1006.49
2018-03-01T04:53:21.272Z,1006.52
2018-03-01T04:54:21.258Z,1006.55
2018-03-01T04:55:21.236Z,1006.40
2018-03-01T04:56:21.218Z,1006.38
2018-03-01T04:57:21.205Z,1006.37
2018-03-01T04:58:21.187Z,1006.31
2018-03-01T04:59:21.169Z,1006.24
2018-03-01T05:00:21.151Z,1006.20
2018-03-01T05:01:21.135Z,1006.19
2018-03-01T05:02:21.116Z,1006.16
2018-03-01T05:03:21.097Z,1006.30
2018-03-01T05:04:21.081Z,1006.12
2018-03-01T05:05:21.066Z,1006.20
2018-03-01T05:06:21.047Z,1006.11
2018-03-01T05:07:21.031Z,1006.06
2018-03-01T05:08:21.014Z,1006.04
2018-03-01T05:09:21.000Z,1006.13
2018-03-01T05:10:20.983Z,1006.07
2018-03-01T05:11:20.966Z,1006.12
2018-03-01T05:12:20.948Z,1006.14
2018-03-01T05:13:20.931Z,1006.27
2018-03-01T05:14:20.915Z,1006.21
2018-03-01T05:15:20.898Z,1006.33
2018-03-01T05:16:20.882Z,1006.33
2018-03-01T05:17:20.860Z,1006.31
2018-03-01T05:18:20.844Z,1006.40
2018-03-01T05:19:20.827Z,1006.45
2018-03-01T05:20:20.819Z,1006.48
2018-03-01T05:21:20.794Z,1006.54
2018-03-01T05:22:20.776Z,1006.47
2018-03-01T05:23:20.760Z,1006.45
2018-03-01T05:24:20.743Z,1006.52
2018-03-01T05:25:20.730Z,1006.48
2018-03-01T05:26:20.715Z,1006.42
2018-03-01T05:27:20.696Z,1006.42
2018-03-01T05:28:20.676Z,1006.42
2018-03-01T05:29:20.661Z,1006.42
2018-03-01T05:30:20.645Z,1006.52
2018-03-01T05:31:20.681Z,1006.46
2018-03-01T05:32:20.610Z,1006.54
2018-03-01T05:33:20.591Z,1006.56
2018-03-01T05:34:20.574Z,1006.46
2018-03-01T05:35:20.557Z,1006.50
2018-03-01T05:36:20.540Z,1006.54
2018-03-01T05:37:20.574Z,1006.47
2018-03-01T05:38:20.509Z,1006.50
2018-03-01T05:39:20.493Z,1006.52
2018-03-01T05:40:20.473Z,1006.54
2018-03-01T05:41:20.454Z,1006.52
2018-03-01T05:42:20.438Z,1006.53
2018-03-01T05:43:20.422Z,1006.45
2018-03-01T05:44:20.402Z,1006.49
2018-03-01T05:45:20.391Z,1006.48
2018-03-01T05:46:20.370Z,1006.36
2018-03-01T05:47:20.354Z,1006.30
2018-03-01T05:48:20.336Z,1006.30
2018-03-01T05:49:20.322Z,1006.40
2018-03-01T05:50:20.305Z,1006.41
2018-03-01T05:51:20.290Z,1006.37
2018-03-01T05:52:20.273Z,1006.29
2018-03-01T05:53:20.254Z,1006.25
2018-03-01T05:54:20.239Z,1006.22
2018-03-01T05:55:20.221Z,1006.24
2018-03-01T05:56:20.204Z,1006.14
2018-03-01T05:57:20.184Z,1006.28
2018-03-01T05:58:20.167Z,1006.24
2018-03-01T05:59:20.152Z,1006.34
2018-03-01T06:00:20.132Z,1006.22
2018-03-01T06:01:20.116Z,1006.17
2018-03-01T06:02:20.099Z,1006.13
2018-03-01T06:03:20.084Z,1006.24
2018-03-01T06:04:20.066Z,1006.16
2018-03-01T06:05:20.052Z,1006.21
2018-03-01T06:06:20.041Z,1006.14
2018-03-01T06:07:20.021Z,1006.15
2018-03-01T06:08:20.001Z,1006.16
2018-03-01T06:09:19.983Z,1006.20
2018-03-01T06:10:19.966Z,1006.27
2018-03-01T06:11:19.950Z,1006.17
2018-03-01T06:12:19.932Z,1006.22
2018-03-01T06:13:19.913Z,1006.22
2018-03-01T06:14:19.896Z,1006.20
2018-03-01T06:15:19.885Z,1006.18
2018-03-01T06:16:19.861Z,1006.16
2018-03-01T06:17:19.844Z,1006.25
2018-03-01T06:18:19.828Z,1006.15
2018-03-01T06:19:19.811Z,1006.16
2018-03-01T06:20:19.793Z,1006.10
2018-03-01T06:21:19.780Z,1006.11
2018-03-01T06:22:19.763Z,1006.06
2018-03-01T06:23:19.746Z,1006.00
2018-03-01T06:24:19.728Z,1006.08
2018-03-01T06:25:19.711Z,1005.97
2018-03-01T06:26:19.693Z,1006.07
2018-03-01T06:27:19.680Z,1006.18
2018-03-01T06:28:19.659Z,1006.20
2018-03-01T06:29:19.640Z,1006.09
2018-03-01T06:30:19.624Z,1006.11
2018-03-01T06:31:19.607Z,1006.11
2018-03-01T06:32:19.590Z,1006.10
2018-03-01T06:33:19.572Z,1006.03
2018-03-01T06:34:19.555Z,1006.08
2018-03-01T06:35:19.539Z,1006.11
2018-03-01T06:36:19.521Z,1006.15
2018-03-01T06:37:19.506Z,1006.12
2018-03-01T06:38:19.491Z,1006.02
2018-03-01T06:39:19.473Z,1006.08
2018-03-01T06:40:19.456Z,1006.09
2018-03-01T06:41:19.436Z,1006.18
2018-03-01T06:42:19.419Z,1005.96
2018-03-01T06:43:19.403Z,1006.01
2018-03-01T06:44:19.384Z,1006.11
2018-03-01T06:45:19.370Z,1006.04
2018-03-01T06:46:19.354Z,1006.03
2018-03-01T06:47:19.337Z,1006.15
2018-03-01T06:48:19.319Z,1006.19
2018-03-01T06:49:19.302Z,1006.15
2018-03-01T06:50:19.291Z,1006.26
2018-03-01T06:51:19.271Z,1006.17
2018-03-01T06:52:19.253Z,1006.15
2018-03-01T06:53:19.232Z,1006.09
2018-03-01T06:54:19.216Z,1006.10
2018-03-01T06:55:19.200Z,1006.12
2018-03-01T06:56:19.183Z,1006.00
2018-03-01T06:57:19.170Z,1006.03
2018-03-01T06:58:19.150Z,1006.10
2018-03-01T06:59:19.134Z,1006.10
2018-03-01T07:00:19.116Z,1006.17
2018-03-01T07:01:19.103Z,1006.22
2018-03-01T07:02:19.088Z,1006.17
2018-03-01T07:03:19.071Z,1006.20
2018-03-01T07:04:19.053Z,1006.19
2018-03-01T07:05:19.037Z,1006.23
2018-03-01T07:06:19.022Z,1006.16
2018-03-01T07:07:19.004Z,1006.16
2018-03-01T07:08:18.988Z,1006.11
2018-03-01T07:09:18.968Z,1006.02
2018-03-01T07:10:18.952Z,1006.13
2018-03-01T07:11:18.953Z,1006.07
2018-03-01T07:12:18.919Z,1006.14
2018-03-01T07:13:18.904Z,1006.06
2018-03-01T07:14:18.885Z,1006.40
2018-03-01T07:15:18.874Z,1006.29
2018-03-01T07:16:18.854Z,1006.21
2018-03-01T07:17:18.842Z,1006.06
2018-03-01T07:18:18.825Z,1006.07
2018-03-01T07:19:18.809Z,1006.13
2018-03-01T07:20:18.795Z,1006.07
2018-03-01T07:21:18.782Z,1006.07
2018-03-01T07:22:18.761Z,1006.35
2018-03-01T07:23:18.747Z,1006.38
2018-03-01T07:24:18.730Z,1006.50
2018-03-01T07:25:18.712Z,1006.50
2018-03-01T07:26:18.696Z,1006.53
2018-03-01T07:27:18.682Z,1006.52
2018-03-01T07:28:18.669Z,1006.54
2018-03-01T07:29:18.651Z,1006.61
2018-03-01T07:30:18.637Z,1006.59
2018-03-01T07:31:18.624Z,1006.62
2018-03-01T07:32:18.609Z,1006.66
2018-03-01T07:33:18.597Z,1006.62
2018-03-01T07:34:18.586Z,1006.55
2018-03-01T07:35:18.571Z,1006.74
2018-03-01T07:36:18.558Z,1006.39
2018-03-01T07:37:18.545Z,1006.30
2018-03-01T07:38:18.532Z,1006.25
2018-03-01T07:39:18.520Z,1006.45
2018-03-01T07:40:18.507Z,1006.35
2018-03-01T07:41:18.492Z,1006.32
2018-03-01T07:42:18.480Z,1006.40
2018-03-01T07:43:18.468Z,1006.45
2018-03-01T07:44:18.457Z,1006.53
2018-03-01T07:45:18.448Z,1006.77
2018-03-01T07:46:18.443Z,1006.59
2018-03-01T07:47:18.425Z,1006.56
2018-03-01T07:48:18.414Z,1006.31
2018-03-01T07:49:18.399Z,1006.37
2018-03-01T07:50:18.390Z,1006.40
2018-03-01T07:51:18.380Z,1006.41
2018-03-01T07:52:18.367Z,1006.28
2018-03-01T07:53:18.357Z,1006.17
2018-03-01T07:54:18.346Z,1005.87
2018-03-01T07:55:18.337Z,1005.84
2018-03-01T07:56:18.356Z,1006.13
2018-03-01T07:57:18.318Z,1006.03
2018-03-01T07:58:18.308Z,1005.82
2018-03-01T07:59:18.297Z,1005.74
2018-03-01T08:00:18.286Z,1005.93
2018-03-01T08:01:18.275Z,1005.78
2018-03-01T08:02:18.263Z,1006.07
2018-03-01T08:03:18.253Z,1005.80
2018-03-01T08:04:18.257Z,1005.99
2018-03-01T08:05:18.227Z,1005.75
2018-03-01T08:06:18.215Z,1005.90
2018-03-01T08:07:18.204Z,1005.81
2018-03-01T08:08:18.197Z,1005.72
2018-03-01T08:09:18.179Z,1005.87
2018-03-01T08:10:18.169Z,1006.43
2018-03-01T08:11:18.170Z,1005.79
2018-03-01T08:12:18.144Z,1005.74
2018-03-01T08:13:18.134Z,1005.74
2018-03-01T08:14:18.122Z,1005.69
2018-03-01T08:15:18.110Z,1005.96
2018-03-01T08:16:18.096Z,1005.83
2018-03-01T08:17:18.085Z,1006.54
2018-03-01T08:18:18.072Z,1005.91
2018-03-01T08:19:18.060Z,1006.18
2018-03-01T08:20:18.048Z,1005.97
2018-03-01T08:21:18.032Z,1005.77
2018-03-01T08:22:18.020Z,1005.85
2018-03-01T08:23:18.010Z,1006.26
2018-03-01T08:24:17.998Z,1005.62
2018-03-01T08:25:18.028Z,1005.53
2018-03-01T08:26:17.971Z,1005.27
2018-03-01T08:27:17.961Z,1005.50
2018-03-01T08:28:17.948Z,1005.64
2018-03-01T08:29:17.939Z,1005.64
2018-03-01T08:30:17.928Z,1005.57
2018-03-01T08:31:17.926Z,1005.66
2018-03-01T08:32:17.908Z,1005.70
2018-03-01T08:33:17.891Z,1005.62
2018-03-01T08:34:17.882Z,1005.69
2018-03-01T08:35:17.870Z,1005.66
2018-03-01T08:36:17.860Z,1005.49
2018-03-01T08:37:17.845Z,1005.53
2018-03-01T08:38:17.835Z,1005.57
2018-03-01T08:39:17.826Z,1005.45
2018-03-01T08:40:17.816Z,1005.64
2018-03-01T08:41:17.807Z,1005.51
2018-03-01T08:42:17.797Z,1005.48
2018-03-01T08:43:17.789Z,1005.29
2018-03-01T08:44:17.779Z,1005.30
2018-03-01T08:45:17.772Z,1005.20
2018-03-01T08:46:17.765Z,1005.70
2018-03-01T08:47:17.756Z,1005.25
2018-03-01T08:48:17.747Z,1005.31
2018-03-01T08:49:17.735Z,1005.43
2018-03-01T08:50:17.726Z,1005.12
2018-03-01T08:51:17.721Z,1005.44
2018-03-01T08:52:17.709Z,1005.05
2018-03-01T08:53:17.705Z,1005.10
2018-03-01T08:54:17.696Z,1005.09
2018-03-01T08:55:17.687Z,1004.92
2018-03-01T08:56:17.681Z,1004.87
2018-03-01T08:57:17.670Z,1004.82
2018-03-01T08:58:17.662Z,1004.75
2018-03-01T08:59:17.653Z,1004.78
2018-03-01T09:00:17.644Z,1004.79
2018-03-01T09:01:17.634Z,1004.78
2018-03-01T09:02:17.624Z,1004.76
2018-03-01T09:03:17.616Z,1004.70
2018-03-01T09:04:17.604Z,1004.69
2018-03-01T09:05:17.596Z,1004.65
2018-03-01T09:06:17.585Z,1004.63
2018-03-01T09:07:17.577Z,1004.71
2018-03-01T09:08:17.567Z,1004.48
2018-03-01T09:09:17.559Z,1004.50
2018-03-01T09:10:17.550Z,1004.45
2018-03-01T09:11:17.540Z,1004.60
2018-03-01T09:12:17.530Z,1004.70
2018-03-01T09:13:17.520Z,1004.59
2018-03-01T09:14:17.509Z,1004.49
2018-03-01T09:15:17.501Z,1004.28
2018-03-01T09:16:17.490Z,1004.68
2018-03-01T09:17:17.476Z,1004.73
2018-03-01T09:18:17.468Z,1004.65
2018-03-01T09:19:17.461Z,1004.64
2018-03-01T09:20:17.450Z,1004.62
2018-03-01T09:21:17.443Z,1004.72
2018-03-01T09:22:17.435Z,1004.62
2018-03-01T09:23:17.427Z,1004.61
2018-03-01T09:24:17.418Z,1004.53
2018-03-01T09:25:17.413Z,1004.53
2018-03-01T09:26:17.407Z,1004.66
2018-03-01T09:27:17.400Z,1004.62
2018-03-01T09:28:17.391Z,1004.58
2018-03-01T09:29:17.386Z,1004.64
2018-03-01T09:30:17.382Z,1004.72
2018-03-01T09:31:17.374Z,1004.76
2018-03-01T09:32:17.367Z,1004.81
2018-03-01T09:33:17.359Z,1004.69
2018-03-01T09:34:17.353Z,1004.72
2018-03-01T09:35:17.348Z,1004.67
2018-03-01T09:36:17.344Z,1004.67
2018-03-01T09:37:17.339Z,1004.72
2018-03-01T09:38:17.334Z,1004.68
2018-03-01T09:39:17.329Z,1004.67
2018-03-01T09:40:17.324Z,1004.45
2018-03-01T09:41:17.323Z,1004.58
2018-03-01T09:42:17.319Z,1004.37
2018-03-01T09:43:17.321Z,1004.46
2018-03-01T09:44:17.312Z,1004.53
2018-03-01T09:45:17.306Z,1004.28
2018-03-01T09:46:17.303Z,1004.27
2018-03-01T09:47:17.301Z,1004.38
2018-03-01T09:48:17.295Z,1004.45
2018-03-01T09:49:17.289Z,1004.59
2018-03-01T09:50:17.285Z,1004.20
2018-03-01T09:51:17.282Z,1004.28
2018-03-01T09:52:17.276Z,1004.26
2018-03-01T09:53:17.274Z,1004.31
2018-03-01T09:54:17.271Z,1004.43
2018-03-01T09:55:17.267Z,1004.30
2018-03-01T09:56:17.261Z,1004.34
2018-03-01T09:57:17.253Z,1004.16
2018-03-01T09:58:17.248Z,1004.36
2018-03-01T09:59:17.245Z,1004.18
2018-03-01T10:00:17.239Z,1004.11
2018-03-01T10:01:17.236Z,1004.19
2018-03-01T10:02:17.230Z,1004.19
2018-03-01T10:03:17.244Z,1004.14
2018-03-01T10:04:17.225Z,1004.27
2018-03-01T10:05:17.219Z,1004.18
2018-03-01T10:06:17.215Z,1004.22
2018-03-01T10:07:17.263Z,1004.20
2018-03-01T10:08:17.205Z,1004.11
2018-03-01T10:09:17.201Z,1004.06
2018-03-01T10:10:17.195Z,1004.13
2018-03-01T10:11:17.192Z,1004.05
2018-03-01T10:12:17.188Z,1003.99
2018-03-01T10:13:17.180Z,1004.10
2018-03-01T10:14:17.177Z,1004.16
2018-03-01T10:15:17.174Z,1004.20
2018-03-01T10:16:17.171Z,1004.23
2018-03-01T10:17:17.166Z,1004.22
2018-03-01T10:18:17.164Z,1004.24
2018-03-01T10:19:17.160Z,1004.20
2018-03-01T10:20:17.157Z,1004.21
2018-03-01T10:21:17.159Z,1004.18
2018-03-01T10:22:17.156Z,1004.23
2018-03-01T10:23:17.153Z,1004.13
2018-03-01T10:24:17.152Z,1004.07
2018-03-01T10:25:17.150Z,1004.02
2018-03-01T10:26:17.154Z,1004.07
2018-03-01T10:27:17.146Z,1004.15
2018-03-01T10:28:17.146Z,1004.24
2018-03-01T10:29:17.141Z,1004.14
2018-03-01T10:30:17.139Z,1004.29
2018-03-01T10:31:17.138Z,1003.99
2018-03-01T10:32:17.136Z,1004.05
2018-03-01T10:33:17.140Z,1003.91
2018-03-01T10:34:17.133Z,1003.81
2018-03-01T10:35:17.132Z,1004.26
2018-03-01T10:36:17.128Z,1003.74
2018-03-01T10:37:17.130Z,1003.70
2018-03-01T10:38:17.127Z,1003.90
2018-03-01T10:39:17.124Z,1003.79
2018-03-01T10:40:17.126Z,1003.62
2018-03-01T10:41:17.118Z,1003.61
2018-03-01T10:42:17.118Z,1003.84
2018-03-01T10:43:17.113Z,1003.66
2018-03-01T10:44:17.112Z,1003.62
2018-03-01T10:45:17.104Z,1003.57
2018-03-01T10:46:17.101Z,1003.51
2018-03-01T10:47:17.098Z,1003.48
2018-03-01T10:48:17.092Z,1003.52
2018-03-01T10:49:17.089Z,1003.54
2018-03-01T10:50:17.086Z,1003.49
2018-03-01T10:51:17.082Z,1003.59
2018-03-01T10:52:17.078Z,1003.55
2018-03-01T10:53:17.077Z,1003.59
2018-03-01T10:54:17.072Z,1003.64
2018-03-01T10:55:17.068Z,1003.53
2018-03-01T10:56:17.064Z,1003.49
2018-03-01T10:57:17.059Z,1003.55
2018-03-01T10:58:17.055Z,1003.52
2018-03-01T10:59:17.050Z,1003.54
2018-03-01T11:00:17.045Z,1003.47
2018-03-01T11:01:17.041Z,1003.76
2018-03-01T11:02:17.034Z,1003.76
2018-03-01T11:03:17.031Z,1003.46
2018-03-01T11:04:17.024Z,1003.64
2018-03-01T11:05:17.023Z,1003.37
2018-03-01T11:06:17.018Z,1003.50
2018-03-01T11:07:17.012Z,1003.48
2018-03-01T11:08:17.006Z,1003.44
2018-03-01T11:09:17.005Z,1003.29
2018-03-01T11:10:17.000Z,1003.37
2018-03-01T11:11:16.995Z,1003.24
2018-03-01T11:12:16.990Z,1003.20
2018-03-01T11:13:16.986Z,1003.26
2018-03-01T11:14:16.980Z,1003.23
2018-03-01T11:15:16.979Z,1003.41
2018-03-01T11:16:16.970Z,1003.24
2018-03-01T11:17:17.007Z,1003.17
2018-03-01T11:18:16.961Z,1003.06
2018-03-01T11:19:16.953Z,1003.12
2018-03-01T11:20:16.948Z,1003.07
2018-03-01T11:21:16.942Z,1002.86
2018-03-01T11:22:16.938Z,1002.97
2018-03-01T11:23:16.978Z,1002.95
2018-03-01T11:24:16.926Z,1003.02
2018-03-01T11:25:16.926Z,1002.83
2018-03-01T11:26:16.919Z,1002.79
2018-03-01T11:27:16.913Z,1002.75
2018-03-01T11:28:16.907Z,1002.76
2018-03-01T11:29:16.935Z,1002.82
2018-03-01T11:30:16.896Z,1002.63
2018-03-01T11:31:16.891Z,1002.57
2018-03-01T11:32:16.884Z,1002.83
2018-03-01T11:33:16.876Z,1002.74
2018-03-01T11:34:16.870Z,1002.64
2018-03-01T11:35:16.864Z,1002.62
2018-03-01T11:36:16.857Z,1002.73
2018-03-01T11:37:16.851Z,1002.52
2018-03-01T11:38:16.845Z,1002.50
2018-03-01T11:39:16.844Z,1002.55
2018-03-01T11:40:16.832Z,1002.36
2018-03-01T11:41:16.829Z,1002.53
2018-03-01T11:42:16.821Z,1002.34
2018-03-01T11:43:16.816Z,1002.22
2018-03-01T11:44:16.808Z,1002.24
2018-03-01T11:45:16.800Z,1002.23
2018-03-01T11:46:16.794Z,1002.05
2018-03-01T11:47:16.785Z,1002.16
2018-03-01T11:48:16.779Z,1002.34
2018-03-01T11:49:16.767Z,1002.14
2018-03-01T11:50:16.758Z,1002.17
2018-03-01T11:51:16.751Z,1002.29
2018-03-01T11:52:16.742Z,1002.12
2018-03-01T11:53:16.733Z,1001.98
2018-03-01T11:54:16.726Z,1002.09
2018-03-01T11:55:16.718Z,1002.10
2018-03-01T11:56:16.708Z,1002.07
2018-03-01T11:57:16.707Z,1001.97
2018-03-01T11:58:16.693Z,1002.00
2018-03-01T11:59:16.686Z,1001.90
2018-03-01T12:00:16.676Z,1001.90
2018-03-01T12:01:16.664Z,1001.83
2018-03-01T12:02:16.656Z,1001.90
2018-03-01T12:03:16.647Z,1001.86
2018-03-01T12:04:16.637Z,1001.96
2018-03-01T12:05:16.631Z,1001.80